sensor_id;sensor_type;location;lat;lon;timestamp;temperature;humidity
2042;DHT22;1026;51.460;7.252;2023-07-28T00:01:16;17.50;92.30
2042;DHT22;1026;51.460;7.252;2023-07-28T00:03:43;17.50;92.30
2042;DHT22;1026;51.460;7.252;2023-07-28T00:06:34;17.50;92.30
2042;DHT22;1026;51.460;7.252;2023-07-28T00:09:07;17.50;92.30
2042;DHT22;1026;51.460;7.252;2023-07-28T00:11:41;17.50;92.40
2042;DHT22;1026;51.460;7.252;2023-07-28T00:14:08;17.50;92.30
2042;DHT22;1026;51.460;7.252;2023-07-28T00:16:41;17.50;92.30
2042;DHT22;1026;51.460;7.252;2023-07-28T00:19:14;17.50;92.30
2042;DHT22;1026;51.460;7.252;2023-07-28T00:21:41;17.50;92.30
2042;DHT22;1026;51.460;7.252;2023-07-28T00:24:08;17.50;92.80
2042;DHT22;1026;51.460;7.252;2023-07-28T00:26:41;17.50;92.30
2042;DHT22;1026;51.460;7.252;2023-07-28T00:29:08;17.50;92.40
2042;DHT22;1026;51.460;7.252;2023-07-28T00:31:35;17.50;92.40
2042;DHT22;1026;51.460;7.252;2023-07-28T00:34:09;17.50;92.40
2042;DHT22;1026;51.460;7.252;2023-07-28T00:36:36;17.50;92.40
2042;DHT22;1026;51.460;7.252;2023-07-28T00:39:03;17.50;92.40
2042;DHT22;1026;51.460;7.252;2023-07-28T00:41:37;17.50;92.40
2042;DHT22;1026;51.460;7.252;2023-07-28T00:44:04;17.50;92.40
2042;DHT22;1026;51.460;7.252;2023-07-28T00:47:11;17.50;92.40
2042;DHT22;1026;51.460;7.252;2023-07-28T00:49:45;17.40;92.40
2042;DHT22;1026;51.460;7.252;2023-07-28T00:52:19;17.40;92.40
2042;DHT22;1026;51.460;7.252;2023-07-28T00:58:03;17.40;92.40
2042;DHT22;1026;51.460;7.252;2023-07-28T01:00:43;17.40;92.40
2042;DHT22;1026;51.460;7.252;2023-07-28T01:03:18;17.50;92.40
2042;DHT22;1026;51.460;7.252;2023-07-28T01:09:03;17.40;92.40
2042;DHT22;1026;51.460;7.252;2023-07-28T01:11:31;17.40;92.30
2042;DHT22;1026;51.460;7.252;2023-07-28T01:13:58;17.40;92.40
2042;DHT22;1026;51.460;7.252;2023-07-28T01:16:31;17.40;92.40
2042;DHT22;1026;51.460;7.252;2023-07-28T01:18:59;17.40;92.40
2042;DHT22;1026;51.460;7.252;2023-07-28T01:21:29;17.40;92.40
2042;DHT22;1026;51.460;7.252;2023-07-28T01:24:32;17.40;92.40
2042;DHT22;1026;51.460;7.252;2023-07-28T01:27:09;17.40;92.40
2042;DHT22;1026;51.460;7.252;2023-07-28T01:29:50;17.40;92.40
2042;DHT22;1026;51.460;7.252;2023-07-28T01:32:31;17.40;92.40
2042;DHT22;1026;51.460;7.252;2023-07-28T01:35:05;17.40;92.50
2042;DHT22;1026;51.460;7.252;2023-07-28T01:37:32;17.40;92.40
2042;DHT22;1026;51.460;7.252;2023-07-28T01:40:06;17.40;92.40
2042;DHT22;1026;51.460;7.252;2023-07-28T01:42:40;17.40;92.40
2042;DHT22;1026;51.460;7.252;2023-07-28T01:45:08;17.40;92.40
2042;DHT22;1026;51.460;7.252;2023-07-28T01:47:35;17.40;92.50
2042;DHT22;1026;51.460;7.252;2023-07-28T01:50:09;17.40;92.40
2042;DHT22;1026;51.460;7.252;2023-07-28T01:52:43;17.40;92.40
2042;DHT22;1026;51.460;7.252;2023-07-28T01:55:17;17.40;92.40
2042;DHT22;1026;51.460;7.252;2023-07-28T01:57:58;17.40;92.50
2042;DHT22;1026;51.460;7.252;2023-07-28T02:00:45;17.40;92.80
2042;DHT22;1026;51.460;7.252;2023-07-28T02:03:13;17.40;92.40
2042;DHT22;1026;51.460;7.252;2023-07-28T02:05:46;17.40;92.40
2042;DHT22;1026;51.460;7.252;2023-07-28T02:08:13;17.40;92.40
2042;DHT22;1026;51.460;7.252;2023-07-28T02:10:47;17.40;92.40
2042;DHT22;1026;51.460;7.252;2023-07-28T02:13:14;17.40;92.40
2042;DHT22;1026;51.460;7.252;2023-07-28T02:15:41;17.40;92.80
2042;DHT22;1026;51.460;7.252;2023-07-28T02:18:14;17.40;92.40
2042;DHT22;1026;51.460;7.252;2023-07-28T02:20:41;17.40;92.50
2042;DHT22;1026;51.460;7.252;2023-07-28T02:23:08;17.40;92.50
2042;DHT22;1026;51.460;7.252;2023-07-28T02:25:41;17.40;92.40
2042;DHT22;1026;51.460;7.252;2023-07-28T02:28:14;17.40;92.50
2042;DHT22;1026;51.460;7.252;2023-07-28T02:30:41;17.40;92.50
2042;DHT22;1026;51.460;7.252;2023-07-28T02:33:14;17.40;92.50
2042;DHT22;1026;51.460;7.252;2023-07-28T02:35:41;17.40;92.50
2042;DHT22;1026;51.460;7.252;2023-07-28T02:38:09;17.40;92.40
2042;DHT22;1026;51.460;7.252;2023-07-28T02:40:43;17.40;92.40
2042;DHT22;1026;51.460;7.252;2023-07-28T02:43:10;17.40;92.40
2042;DHT22;1026;51.460;7.252;2023-07-28T02:45:37;17.40;92.80
2042;DHT22;1026;51.460;7.252;2023-07-28T02:48:10;17.40;92.40
2042;DHT22;1026;51.460;7.252;2023-07-28T02:50:48;17.40;92.40
2042;DHT22;1026;51.460;7.252;2023-07-28T02:53:22;17.40;92.40
2042;DHT22;1026;51.460;7.252;2023-07-28T02:55:56;17.40;92.40
2042;DHT22;1026;51.460;7.252;2023-07-28T02:58:36;17.40;92.50
2042;DHT22;1026;51.460;7.252;2023-07-28T03:01:09;17.30;92.40
2042;DHT22;1026;51.460;7.252;2023-07-28T03:03:36;17.40;92.50
2042;DHT22;1026;51.460;7.252;2023-07-28T03:06:20;17.40;92.40
2042;DHT22;1026;51.460;7.252;2023-07-28T03:08:53;17.40;92.50
2042;DHT22;1026;51.460;7.252;2023-07-28T03:11:20;17.40;92.50
2042;DHT22;1026;51.460;7.252;2023-07-28T03:13:48;17.30;92.30
2042;DHT22;1026;51.460;7.252;2023-07-28T03:16:22;17.40;92.40
2042;DHT22;1026;51.460;7.252;2023-07-28T03:18:49;17.30;92.40
2042;DHT22;1026;51.460;7.252;2023-07-28T03:21:16;17.40;92.40
2042;DHT22;1026;51.460;7.252;2023-07-28T03:23:50;17.40;92.50
2042;DHT22;1026;51.460;7.252;2023-07-28T03:26:18;17.30;92.30
2042;DHT22;1026;51.460;7.252;2023-07-28T03:28:45;17.30;92.30
2042;DHT22;1026;51.460;7.252;2023-07-28T03:31:18;17.30;92.40
2042;DHT22;1026;51.460;7.252;2023-07-28T03:33:52;17.30;92.40
2042;DHT22;1026;51.460;7.252;2023-07-28T03:36:20;17.30;92.40
2042;DHT22;1026;51.460;7.252;2023-07-28T03:38:53;17.30;92.30
2042;DHT22;1026;51.460;7.252;2023-07-28T03:41:20;17.40;92.40
2042;DHT22;1026;51.460;7.252;2023-07-28T03:43:53;17.30;92.70
2042;DHT22;1026;51.460;7.252;2023-07-28T03:46:20;17.30;92.40
2042;DHT22;1026;51.460;7.252;2023-07-28T03:48:47;17.40;92.40
2042;DHT22;1026;51.460;7.252;2023-07-28T03:51:20;17.30;92.40
2042;DHT22;1026;51.460;7.252;2023-07-28T03:53:47;17.30;92.40
2042;DHT22;1026;51.460;7.252;2023-07-28T03:56:14;17.30;92.30
2042;DHT22;1026;51.460;7.252;2023-07-28T03:58:47;17.30;92.40
2042;DHT22;1026;51.460;7.252;2023-07-28T04:01:27;17.30;92.40
2042;DHT22;1026;51.460;7.252;2023-07-28T04:04:00;17.30;92.40
2042;DHT22;1026;51.460;7.252;2023-07-28T04:06:47;17.30;92.30
2042;DHT22;1026;51.460;7.252;2023-07-28T04:09:23;17.30;92.40
2042;DHT22;1026;51.460;7.252;2023-07-28T04:11:56;17.30;92.30
2042;DHT22;1026;51.460;7.252;2023-07-28T04:18:14;17.30;92.30
2042;DHT22;1026;51.460;7.252;2023-07-28T04:20:47;17.30;92.30
2042;DHT22;1026;51.460;7.252;2023-07-28T04:23:21;17.30;92.40
2042;DHT22;1026;51.460;7.252;2023-07-28T04:25:54;17.30;92.30
2042;DHT22;1026;51.460;7.252;2023-07-28T04:28:21;17.30;92.30
2042;DHT22;1026;51.460;7.252;2023-07-28T04:30:58;17.30;92.30
2042;DHT22;1026;51.460;7.252;2023-07-28T04:33:24;17.30;92.30
2042;DHT22;1026;51.460;7.252;2023-07-28T04:35:51;17.30;92.30
2042;DHT22;1026;51.460;7.252;2023-07-28T04:38:25;17.30;92.30
2042;DHT22;1026;51.460;7.252;2023-07-28T04:40:59;17.30;92.30
2042;DHT22;1026;51.460;7.252;2023-07-28T04:43:26;17.30;92.30
2042;DHT22;1026;51.460;7.252;2023-07-28T04:45:53;17.30;92.30
2042;DHT22;1026;51.460;7.252;2023-07-28T04:48:27;17.30;92.30
2042;DHT22;1026;51.460;7.252;2023-07-28T04:50:54;17.30;92.30
2042;DHT22;1026;51.460;7.252;2023-07-28T04:53:28;17.30;92.30
2042;DHT22;1026;51.460;7.252;2023-07-28T04:55:56;17.30;92.30
2042;DHT22;1026;51.460;7.252;2023-07-28T04:58:30;17.30;92.30
2042;DHT22;1026;51.460;7.252;2023-07-28T05:01:04;17.30;92.50
2042;DHT22;1026;51.460;7.252;2023-07-28T05:03:39;17.30;92.30
2042;DHT22;1026;51.460;7.252;2023-07-28T05:06:13;17.30;92.30
2042;DHT22;1026;51.460;7.252;2023-07-28T05:12:31;17.30;92.40
2042;DHT22;1026;51.460;7.252;2023-07-28T05:15:05;17.30;92.40
2042;DHT22;1026;51.460;7.252;2023-07-28T05:17:32;17.30;92.30
2042;DHT22;1026;51.460;7.252;2023-07-28T05:19:59;17.40;92.40
2042;DHT22;1026;51.460;7.252;2023-07-28T05:22:33;17.40;92.40
2042;DHT22;1026;51.460;7.252;2023-07-28T05:25:07;17.40;92.50
2042;DHT22;1026;51.460;7.252;2023-07-28T05:27:34;17.40;92.40
2042;DHT22;1026;51.460;7.252;2023-07-28T05:30:01;17.40;92.40
2042;DHT22;1026;51.460;7.252;2023-07-28T05:32:34;17.40;92.40
2042;DHT22;1026;51.460;7.252;2023-07-28T05:35:08;17.40;92.30
2042;DHT22;1026;51.460;7.252;2023-07-28T05:37:34;17.40;92.40
2042;DHT22;1026;51.460;7.252;2023-07-28T05:40:01;17.40;92.40
2042;DHT22;1026;51.460;7.252;2023-07-28T05:42:35;17.40;92.40
2042;DHT22;1026;51.460;7.252;2023-07-28T05:45:09;17.40;92.50
2042;DHT22;1026;51.460;7.252;2023-07-28T05:47:36;17.40;92.50
2042;DHT22;1026;51.460;7.252;2023-07-28T05:50:04;17.40;92.40
2042;DHT22;1026;51.460;7.252;2023-07-28T05:52:38;17.40;92.40
2042;DHT22;1026;51.460;7.252;2023-07-28T05:55:06;17.40;92.50
2042;DHT22;1026;51.460;7.252;2023-07-28T05:57:46;17.40;92.40
2042;DHT22;1026;51.460;7.252;2023-07-28T06:00:26;17.40;92.40
2042;DHT22;1026;51.460;7.252;2023-07-28T06:03:01;17.40;92.30
2042;DHT22;1026;51.460;7.252;2023-07-28T06:05:35;17.40;92.40
2042;DHT22;1026;51.460;7.252;2023-07-28T06:08:12;17.40;92.40
2042;DHT22;1026;51.460;7.252;2023-07-28T06:10:57;17.40;92.50
2042;DHT22;1026;51.460;7.252;2023-07-28T06:13:24;17.40;92.50
2042;DHT22;1026;51.460;7.252;2023-07-28T06:15:58;17.40;92.50
2042;DHT22;1026;51.460;7.252;2023-07-28T06:18:25;17.50;92.50
2042;DHT22;1026;51.460;7.252;2023-07-28T06:20:58;17.50;92.70
2042;DHT22;1026;51.460;7.252;2023-07-28T06:23:25;17.50;92.60
2042;DHT22;1026;51.460;7.252;2023-07-28T06:25:58;17.50;92.50
2042;DHT22;1026;51.460;7.252;2023-07-28T06:28:25;17.50;92.50
2042;DHT22;1026;51.460;7.252;2023-07-28T06:30:58;17.50;92.50
2042;DHT22;1026;51.460;7.252;2023-07-28T06:33:27;17.60;92.40
2042;DHT22;1026;51.460;7.252;2023-07-28T06:35:54;17.50;92.50
2042;DHT22;1026;51.460;7.252;2023-07-28T06:38:34;17.50;92.40
2042;DHT22;1026;51.460;7.252;2023-07-28T06:41:01;17.50;92.40
2042;DHT22;1026;51.460;7.252;2023-07-28T06:43:34;17.50;92.40
2042;DHT22;1026;51.460;7.252;2023-07-28T06:46:02;17.50;92.40
2042;DHT22;1026;51.460;7.252;2023-07-28T06:48:29;17.50;92.30
2042;DHT22;1026;51.460;7.252;2023-07-28T06:51:02;17.60;92.30
2042;DHT22;1026;51.460;7.252;2023-07-28T06:53:29;17.60;92.40
2042;DHT22;1026;51.460;7.252;2023-07-28T06:55:56;17.60;92.30
2042;DHT22;1026;51.460;7.252;2023-07-28T06:58:36;17.60;92.30
2042;DHT22;1026;51.460;7.252;2023-07-28T07:01:30;17.60;92.20
2042;DHT22;1026;51.460;7.252;2023-07-28T07:04:04;17.60;92.50
2042;DHT22;1026;51.460;7.252;2023-07-28T07:06:32;17.60;92.10
2042;DHT22;1026;51.460;7.252;2023-07-28T07:08:59;17.60;92.10
2042;DHT22;1026;51.460;7.252;2023-07-28T07:11:33;17.70;92.20
2042;DHT22;1026;51.460;7.252;2023-07-28T07:14:00;17.60;92.10
2042;DHT22;1026;51.460;7.252;2023-07-28T07:16:34;17.60;92.10
2042;DHT22;1026;51.460;7.252;2023-07-28T07:19:08;17.60;92.00
2042;DHT22;1026;51.460;7.252;2023-07-28T07:21:41;17.60;92.00
2042;DHT22;1026;51.460;7.252;2023-07-28T07:24:08;17.70;92.00
2042;DHT22;1026;51.460;7.252;2023-07-28T07:26:42;17.70;92.00
2042;DHT22;1026;51.460;7.252;2023-07-28T07:29:15;17.70;92.00
2042;DHT22;1026;51.460;7.252;2023-07-28T07:31:42;17.70;92.00
2042;DHT22;1026;51.460;7.252;2023-07-28T07:34:09;17.70;92.00
2042;DHT22;1026;51.460;7.252;2023-07-28T07:36:42;17.70;92.00
2042;DHT22;1026;51.460;7.252;2023-07-28T07:39:09;17.70;91.90
2042;DHT22;1026;51.460;7.252;2023-07-28T07:41:42;17.70;91.90
2042;DHT22;1026;51.460;7.252;2023-07-28T07:44:09;17.70;92.00
2042;DHT22;1026;51.460;7.252;2023-07-28T07:46:42;17.70;91.90
2042;DHT22;1026;51.460;7.252;2023-07-28T07:49:10;17.70;91.90
2042;DHT22;1026;51.460;7.252;2023-07-28T07:51:43;17.70;91.90
2042;DHT22;1026;51.460;7.252;2023-07-28T07:54:16;17.70;92.10
2042;DHT22;1026;51.460;7.252;2023-07-28T07:56:51;17.70;92.20
2042;DHT22;1026;51.460;7.252;2023-07-28T07:59:32;17.80;92.60
2042;DHT22;1026;51.460;7.252;2023-07-28T08:02:02;17.80;92.40
2042;DHT22;1026;51.460;7.252;2023-07-28T08:04:35;17.80;92.10
2042;DHT22;1026;51.460;7.252;2023-07-28T08:07:03;17.80;92.00
2042;DHT22;1026;51.460;7.252;2023-07-28T08:09:37;17.80;92.50
2042;DHT22;1026;51.460;7.252;2023-07-28T08:12:05;17.80;92.00
2042;DHT22;1026;51.460;7.252;2023-07-28T08:14:38;17.80;92.20
2042;DHT22;1026;51.460;7.252;2023-07-28T08:17:06;17.80;92.00
2042;DHT22;1026;51.460;7.252;2023-07-28T08:19:39;17.80;92.20
2042;DHT22;1026;51.460;7.252;2023-07-28T08:22:07;17.80;92.10
2042;DHT22;1026;51.460;7.252;2023-07-28T08:24:34;17.90;92.40
2042;DHT22;1026;51.460;7.252;2023-07-28T08:27:06;17.90;92.60
2042;DHT22;1026;51.460;7.252;2023-07-28T08:29:40;17.90;92.50
2042;DHT22;1026;51.460;7.252;2023-07-28T08:32:13;18.00;92.70
2042;DHT22;1026;51.460;7.252;2023-07-28T08:34:40;18.00;92.50
2042;DHT22;1026;51.460;7.252;2023-07-28T08:37:07;18.00;92.50
2042;DHT22;1026;51.460;7.252;2023-07-28T08:39:40;18.00;92.40
2042;DHT22;1026;51.460;7.252;2023-07-28T08:42:07;18.00;92.30
2042;DHT22;1026;51.460;7.252;2023-07-28T08:44:35;18.00;92.30
2042;DHT22;1026;51.460;7.252;2023-07-28T08:47:07;18.00;92.50
2042;DHT22;1026;51.460;7.252;2023-07-28T08:49:35;18.00;92.70
2042;DHT22;1026;51.460;7.252;2023-07-28T08:52:04;18.00;92.40
2042;DHT22;1026;51.460;7.252;2023-07-28T08:54:37;18.00;92.50
2042;DHT22;1026;51.460;7.252;2023-07-28T08:57:05;18.10;92.50
2042;DHT22;1026;51.460;7.252;2023-07-28T08:59:52;18.10;92.60
2042;DHT22;1026;51.460;7.252;2023-07-28T09:02:19;18.10;92.50
2042;DHT22;1026;51.460;7.252;2023-07-28T09:04:53;18.10;92.80
2042;DHT22;1026;51.460;7.252;2023-07-28T09:07:20;18.10;92.50
2042;DHT22;1026;51.460;7.252;2023-07-28T09:09:48;18.10;92.60
2042;DHT22;1026;51.460;7.252;2023-07-28T09:12:24;18.10;92.60
2042;DHT22;1026;51.460;7.252;2023-07-28T09:14:56;18.10;92.50
2042;DHT22;1026;51.460;7.252;2023-07-28T09:17:32;18.10;92.40
2042;DHT22;1026;51.460;7.252;2023-07-28T09:20:07;18.20;92.50
2042;DHT22;1026;51.460;7.252;2023-07-28T09:22:46;18.20;92.50
2042;DHT22;1026;51.460;7.252;2023-07-28T09:25:17;18.20;92.60
2042;DHT22;1026;51.460;7.252;2023-07-28T09:27:51;18.20;92.70
2042;DHT22;1026;51.460;7.252;2023-07-28T09:30:26;18.20;93.00
2042;DHT22;1026;51.460;7.252;2023-07-28T09:32:54;18.30;92.60
2042;DHT22;1026;51.460;7.252;2023-07-28T09:35:22;18.30;93.20
2042;DHT22;1026;51.460;7.252;2023-07-28T09:37:56;18.30;92.60
2042;DHT22;1026;51.460;7.252;2023-07-28T09:40:24;18.30;92.60
2042;DHT22;1026;51.460;7.252;2023-07-28T09:42:51;18.30;92.60
2042;DHT22;1026;51.460;7.252;2023-07-28T09:45:28;18.30;92.50
2042;DHT22;1026;51.460;7.252;2023-07-28T09:48:06;18.30;92.40
2042;DHT22;1026;51.460;7.252;2023-07-28T09:50:43;18.40;92.30
2042;DHT22;1026;51.460;7.252;2023-07-28T09:53:11;18.40;92.70
2042;DHT22;1026;51.460;7.252;2023-07-28T09:55:45;18.40;92.60
2042;DHT22;1026;51.460;7.252;2023-07-28T09:58:16;18.40;92.50
2042;DHT22;1026;51.460;7.252;2023-07-28T10:01:05;18.50;92.20
2042;DHT22;1026;51.460;7.252;2023-07-28T10:03:33;18.50;92.20
2042;DHT22;1026;51.460;7.252;2023-07-28T10:06:07;18.60;92.50
2042;DHT22;1026;51.460;7.252;2023-07-28T10:08:41;18.60;92.30
2042;DHT22;1026;51.460;7.252;2023-07-28T10:11:09;18.60;92.60
2042;DHT22;1026;51.460;7.252;2023-07-28T10:13:44;18.60;92.20
2042;DHT22;1026;51.460;7.252;2023-07-28T10:16:11;18.60;92.20
2042;DHT22;1026;51.460;7.252;2023-07-28T10:18:39;18.70;91.80
2042;DHT22;1026;51.460;7.252;2023-07-28T10:21:16;18.70;91.80
2042;DHT22;1026;51.460;7.252;2023-07-28T10:23:44;18.70;92.30
2042;DHT22;1026;51.460;7.252;2023-07-28T10:26:11;18.70;92.90
2042;DHT22;1026;51.460;7.252;2023-07-28T10:28:44;18.70;92.40
2042;DHT22;1026;51.460;7.252;2023-07-28T10:31:11;18.70;92.10
2042;DHT22;1026;51.460;7.252;2023-07-28T10:33:40;18.80;92.00
2042;DHT22;1026;51.460;7.252;2023-07-28T10:39:16;18.90;91.60
2042;DHT22;1026;51.460;7.252;2023-07-28T10:42:05;18.90;92.70
2042;DHT22;1026;51.460;7.252;2023-07-28T10:44:33;18.90;93.10
2042;DHT22;1026;51.460;7.252;2023-07-28T10:47:08;18.90;92.00
2042;DHT22;1026;51.460;7.252;2023-07-28T10:49:43;18.90;91.70
2042;DHT22;1026;51.460;7.252;2023-07-28T10:52:13;18.90;92.20
2042;DHT22;1026;51.460;7.252;2023-07-28T10:54:42;19.00;91.70
2042;DHT22;1026;51.460;7.252;2023-07-28T10:57:16;19.00;91.50
2042;DHT22;1026;51.460;7.252;2023-07-28T10:59:50;19.00;91.50
2042;DHT22;1026;51.460;7.252;2023-07-28T11:02:42;19.10;91.60
2042;DHT22;1026;51.460;7.252;2023-07-28T11:05:18;19.10;91.90
2042;DHT22;1026;51.460;7.252;2023-07-28T11:07:54;19.20;91.50
2042;DHT22;1026;51.460;7.252;2023-07-28T11:10:22;19.20;91.50
2042;DHT22;1026;51.460;7.252;2023-07-28T11:12:51;19.20;91.60
2042;DHT22;1026;51.460;7.252;2023-07-28T11:15:28;19.20;91.40
2042;DHT22;1026;51.460;7.252;2023-07-28T11:17:55;19.30;91.60
2042;DHT22;1026;51.460;7.252;2023-07-28T11:20:29;19.30;91.10
2042;DHT22;1026;51.460;7.252;2023-07-28T11:23:04;19.30;91.00
2042;DHT22;1026;51.460;7.252;2023-07-28T11:25:33;19.30;91.00
2042;DHT22;1026;51.460;7.252;2023-07-28T11:28:03;19.40;90.90
2042;DHT22;1026;51.460;7.252;2023-07-28T11:30:40;19.40;91.10
2042;DHT22;1026;51.460;7.252;2023-07-28T11:33:09;19.50;90.90
2042;DHT22;1026;51.460;7.252;2023-07-28T11:35:46;19.50;91.30
2042;DHT22;1026;51.460;7.252;2023-07-28T11:38:14;19.50;91.40
2042;DHT22;1026;51.460;7.252;2023-07-28T11:40:42;19.50;91.50
2042;DHT22;1026;51.460;7.252;2023-07-28T11:43:16;19.50;91.10
2042;DHT22;1026;51.460;7.252;2023-07-28T11:45:44;19.60;91.40
2042;DHT22;1026;51.460;7.252;2023-07-28T11:48:18;19.60;91.20
2042;DHT22;1026;51.460;7.252;2023-07-28T11:50:45;19.70;91.30
2042;DHT22;1026;51.460;7.252;2023-07-28T11:53:19;19.60;91.40
2042;DHT22;1026;51.460;7.252;2023-07-28T11:55:47;19.60;91.40
2042;DHT22;1026;51.460;7.252;2023-07-28T11:58:21;19.60;91.50
2042;DHT22;1026;51.460;7.252;2023-07-28T12:01:07;19.60;91.40
2042;DHT22;1026;51.460;7.252;2023-07-28T12:03:41;19.70;91.20
2042;DHT22;1026;51.460;7.252;2023-07-28T12:06:08;19.70;91.10
2042;DHT22;1026;51.460;7.252;2023-07-28T12:09:05;19.80;91.40
2042;DHT22;1026;51.460;7.252;2023-07-28T12:11:36;19.80;90.90
2042;DHT22;1026;51.460;7.252;2023-07-28T12:14:12;19.80;91.40
2042;DHT22;1026;51.460;7.252;2023-07-28T12:16:47;19.80;91.40
2042;DHT22;1026;51.460;7.252;2023-07-28T12:19:24;19.80;91.80
2042;DHT22;1026;51.460;7.252;2023-07-28T12:21:51;19.90;95.60
2042;DHT22;1026;51.460;7.252;2023-07-28T12:24:25;20.00;95.30
2042;DHT22;1026;51.460;7.252;2023-07-28T12:26:59;19.90;95.10
2042;DHT22;1026;51.460;7.252;2023-07-28T12:29:39;19.90;94.80
2042;DHT22;1026;51.460;7.252;2023-07-28T12:32:16;19.80;94.60
2042;DHT22;1026;51.460;7.252;2023-07-28T12:35:00;19.80;94.40
2042;DHT22;1026;51.460;7.252;2023-07-28T12:37:40;19.90;94.20
2042;DHT22;1026;51.460;7.252;2023-07-28T12:40:18;19.90;93.70
2042;DHT22;1026;51.460;7.252;2023-07-28T12:42:51;19.90;92.80
2042;DHT22;1026;51.460;7.252;2023-07-28T12:45:31;20.00;92.70
2042;DHT22;1026;51.460;7.252;2023-07-28T12:48:01;20.00;92.30
2042;DHT22;1026;51.460;7.252;2023-07-28T12:50:45;20.00;92.10
2042;DHT22;1026;51.460;7.252;2023-07-28T12:53:13;20.10;91.80
2042;DHT22;1026;51.460;7.252;2023-07-28T12:55:49;20.10;91.30
2042;DHT22;1026;51.460;7.252;2023-07-28T12:58:19;20.20;91.30
2042;DHT22;1026;51.460;7.252;2023-07-28T13:01:10;20.30;90.90
2042;DHT22;1026;51.460;7.252;2023-07-28T13:03:38;20.30;91.10
2042;DHT22;1026;51.460;7.252;2023-07-28T13:06:12;20.20;91.20
2042;DHT22;1026;51.460;7.252;2023-07-28T13:08:46;20.30;91.60
2042;DHT22;1026;51.460;7.252;2023-07-28T13:11:15;20.30;91.70
2042;DHT22;1026;51.460;7.252;2023-07-28T13:13:49;20.30;91.30
2042;DHT22;1026;51.460;7.252;2023-07-28T13:16:16;20.30;91.20
2042;DHT22;1026;51.460;7.252;2023-07-28T13:18:43;20.40;91.10
2042;DHT22;1026;51.460;7.252;2023-07-28T13:21:17;20.40;91.50
2042;DHT22;1026;51.460;7.252;2023-07-28T13:23:44;20.40;90.90
2042;DHT22;1026;51.460;7.252;2023-07-28T13:26:17;20.50;91.00
2042;DHT22;1026;51.460;7.252;2023-07-28T13:28:44;20.50;90.80
2042;DHT22;1026;51.460;7.252;2023-07-28T13:31:20;20.50;90.70
2042;DHT22;1026;51.460;7.252;2023-07-28T13:33:54;20.60;90.50
2042;DHT22;1026;51.460;7.252;2023-07-28T13:36:25;20.60;90.70
2042;DHT22;1026;51.460;7.252;2023-07-28T13:38:51;20.60;90.40
2042;DHT22;1026;51.460;7.252;2023-07-28T13:41:25;20.70;90.40
2042;DHT22;1026;51.460;7.252;2023-07-28T13:43:52;20.70;90.30
2042;DHT22;1026;51.460;7.252;2023-07-28T13:46:28;20.70;90.00
2042;DHT22;1026;51.460;7.252;2023-07-28T13:48:55;20.80;89.90
2042;DHT22;1026;51.460;7.252;2023-07-28T13:51:33;20.90;89.40
2042;DHT22;1026;51.460;7.252;2023-07-28T13:54:10;20.90;89.80
2042;DHT22;1026;51.460;7.252;2023-07-28T13:56:40;20.90;89.90
2042;DHT22;1026;51.460;7.252;2023-07-28T14:00:04;20.90;90.00
2042;DHT22;1026;51.460;7.252;2023-07-28T14:02:45;21.00;90.00
2042;DHT22;1026;51.460;7.252;2023-07-28T14:05:27;21.00;89.50
2042;DHT22;1026;51.460;7.252;2023-07-28T14:08:01;21.10;89.30
2042;DHT22;1026;51.460;7.252;2023-07-28T14:10:28;21.10;89.20
2042;DHT22;1026;51.460;7.252;2023-07-28T14:12:55;21.20;88.90
2042;DHT22;1026;51.460;7.252;2023-07-28T14:15:28;21.20;88.90
2042;DHT22;1026;51.460;7.252;2023-07-28T14:17:55;21.20;88.50
2042;DHT22;1026;51.460;7.252;2023-07-28T14:20:21;21.30;89.70
2042;DHT22;1026;51.460;7.252;2023-07-28T14:22:55;21.30;89.40
2042;DHT22;1026;51.460;7.252;2023-07-28T14:25:22;21.30;90.00
2042;DHT22;1026;51.460;7.252;2023-07-28T14:27:55;21.30;90.10
2042;DHT22;1026;51.460;7.252;2023-07-28T14:30:22;21.30;90.20
2042;DHT22;1026;51.460;7.252;2023-07-28T14:32:56;21.40;90.30
2042;DHT22;1026;51.460;7.252;2023-07-28T14:35:30;21.40;90.60
2042;DHT22;1026;51.460;7.252;2023-07-28T14:37:57;21.30;90.80
2042;DHT22;1026;51.460;7.252;2023-07-28T14:40:23;21.30;90.60
2042;DHT22;1026;51.460;7.252;2023-07-28T14:42:57;21.30;90.50
2042;DHT22;1026;51.460;7.252;2023-07-28T14:45:24;21.30;91.10
2042;DHT22;1026;51.460;7.252;2023-07-28T14:47:58;21.30;90.90
2042;DHT22;1026;51.460;7.252;2023-07-28T14:50:25;21.30;90.50
2042;DHT22;1026;51.460;7.252;2023-07-28T14:52:52;21.40;90.40
2042;DHT22;1026;51.460;7.252;2023-07-28T14:55:26;21.30;90.30
2042;DHT22;1026;51.460;7.252;2023-07-28T14:57:59;21.40;90.60
2042;DHT22;1026;51.460;7.252;2023-07-28T15:00:39;21.40;90.90
2042;DHT22;1026;51.460;7.252;2023-07-28T15:03:06;21.40;90.90
2042;DHT22;1026;51.460;7.252;2023-07-28T15:05:39;21.40;90.70
2042;DHT22;1026;51.460;7.252;2023-07-28T15:08:13;21.50;90.50
2042;DHT22;1026;51.460;7.252;2023-07-28T15:10:47;21.50;90.40
2042;DHT22;1026;51.460;7.252;2023-07-28T15:13:14;21.50;90.60
2042;DHT22;1026;51.460;7.252;2023-07-28T15:15:48;21.50;91.80
2042;DHT22;1026;51.460;7.252;2023-07-28T15:18:22;21.60;90.70
2042;DHT22;1026;51.460;7.252;2023-07-28T15:20:49;21.60;90.30
2042;DHT22;1026;51.460;7.252;2023-07-28T15:23:22;21.60;90.10
2042;DHT22;1026;51.460;7.252;2023-07-28T15:25:56;21.60;90.20
2042;DHT22;1026;51.460;7.252;2023-07-28T15:28:32;21.60;90.50
2042;DHT22;1026;51.460;7.252;2023-07-28T15:30:59;21.60;90.70
2042;DHT22;1026;51.460;7.252;2023-07-28T15:33:26;21.60;90.40
2042;DHT22;1026;51.460;7.252;2023-07-28T15:36:02;21.60;90.20
2042;DHT22;1026;51.460;7.252;2023-07-28T15:38:29;21.60;90.50
2042;DHT22;1026;51.460;7.252;2023-07-28T15:41:02;21.60;90.40
2042;DHT22;1026;51.460;7.252;2023-07-28T15:43:29;21.60;90.40
2042;DHT22;1026;51.460;7.252;2023-07-28T15:46:09;21.70;90.30
2042;DHT22;1026;51.460;7.252;2023-07-28T15:48:36;21.60;90.00
2042;DHT22;1026;51.460;7.252;2023-07-28T15:51:34;21.70;90.00
2042;DHT22;1026;51.460;7.252;2023-07-28T15:54:07;21.70;90.10
2042;DHT22;1026;51.460;7.252;2023-07-28T15:56:34;21.70;90.00
2042;DHT22;1026;51.460;7.252;2023-07-28T15:59:35;21.70;90.10
2042;DHT22;1026;51.460;7.252;2023-07-28T16:02:15;21.70;90.20
2042;DHT22;1026;51.460;7.252;2023-07-28T16:04:49;21.70;90.60
2042;DHT22;1026;51.460;7.252;2023-07-28T16:07:17;21.70;90.40
2042;DHT22;1026;51.460;7.252;2023-07-28T16:09:43;21.70;90.10
2042;DHT22;1026;51.460;7.252;2023-07-28T16:12:20;21.70;91.30
2042;DHT22;1026;51.460;7.252;2023-07-28T16:14:53;21.70;90.40
2042;DHT22;1026;51.460;7.252;2023-07-28T16:17:32;21.70;90.10
2042;DHT22;1026;51.460;7.252;2023-07-28T16:20:07;21.70;90.00
2042;DHT22;1026;51.460;7.252;2023-07-28T16:22:34;21.70;90.50
2042;DHT22;1026;51.460;7.252;2023-07-28T16:25:01;21.70;90.50
2042;DHT22;1026;51.460;7.252;2023-07-28T16:27:34;21.70;90.20
2042;DHT22;1026;51.460;7.252;2023-07-28T16:30:04;21.70;90.20
2042;DHT22;1026;51.460;7.252;2023-07-28T16:32:32;21.70;90.20
2042;DHT22;1026;51.460;7.252;2023-07-28T16:35:06;21.70;90.00
2042;DHT22;1026;51.460;7.252;2023-07-28T16:37:40;21.70;89.70
2042;DHT22;1026;51.460;7.252;2023-07-28T16:40:08;21.70;90.20
2042;DHT22;1026;51.460;7.252;2023-07-28T16:42:35;21.70;90.50
2042;DHT22;1026;51.460;7.252;2023-07-28T16:45:11;21.70;90.20
2042;DHT22;1026;51.460;7.252;2023-07-28T16:47:38;21.70;91.10
2042;DHT22;1026;51.460;7.252;2023-07-28T16:50:12;21.70;90.30
2042;DHT22;1026;51.460;7.252;2023-07-28T16:52:39;21.70;90.40